createdAt,value
2018-03-28T00:02:15.178Z,9.83
2018-03-28T00:04:41.700Z,9.87
2018-03-28T00:07:08.106Z,9.85
2018-03-28T00:09:34.491Z,9.81
2018-03-28T00:12:00.865Z,9.79
2018-03-28T00:14:27.269Z,9.76
2018-03-28T00:16:53.709Z,9.78
2018-03-28T00:19:20.089Z,9.76
2018-03-28T00:21:46.493Z,9.69
2018-03-28T00:24:12.830Z,9.72
2018-03-28T00:26:39.182Z,9.74
2018-03-28T00:29:05.544Z,9.59
2018-03-28T00:31:31.921Z,9.60
2018-03-28T00:33:58.278Z,9.64
2018-03-28T00:36:24.722Z,9.71
2018-03-28T00:38:51.097Z,9.70
2018-03-28T00:41:17.558Z,9.69
2018-03-28T00:43:43.974Z,9.65
2018-03-28T00:46:10.389Z,9.69
2018-03-28T00:48:36.839Z,9.65
2018-03-28T01:04:29.882Z,9.64
2018-03-28T01:06:56.378Z,9.47
2018-03-28T01:09:22.762Z,9.51
2018-03-28T01:11:49.165Z,9.53
2018-03-28T01:14:15.618Z,9.57
2018-03-28T01:16:42.041Z,9.59
2018-03-28T01:19:08.478Z,9.55
2018-03-28T01:21:34.911Z,9.59
2018-03-28T01:24:01.298Z,9.55
2018-03-28T01:26:27.654Z,9.54
2018-03-28T01:28:54.032Z,9.55
2018-03-28T01:31:20.457Z,9.57
2018-03-28T01:33:46.849Z,9.60
2018-03-28T01:36:13.249Z,9.54
2018-03-28T01:38:39.653Z,9.59
2018-03-28T01:41:06.085Z,9.54
2018-03-28T01:43:32.507Z,9.58
2018-03-28T01:45:58.878Z,9.62
2018-03-28T01:48:25.291Z,9.62
2018-03-28T01:50:51.685Z,9.68
2018-03-28T01:53:18.076Z,9.63
2018-03-28T01:55:44.450Z,9.65
2018-03-28T01:58:10.837Z,9.69
2018-03-28T02:00:37.230Z,9.69
2018-03-28T02:03:03.690Z,9.67
2018-03-28T02:05:30.069Z,9.33
2018-03-28T02:07:56.454Z,9.33
2018-03-28T02:10:22.830Z,9.45
2018-03-28T02:12:49.245Z,9.51
2018-03-28T02:15:15.621Z,9.53
2018-03-28T02:17:41.981Z,9.52
2018-03-28T02:20:08.408Z,9.53
2018-03-28T02:22:34.785Z,9.44
2018-03-28T02:25:01.233Z,9.32
2018-03-28T02:27:27.621Z,9.48
2018-03-28T02:29:54.050Z,9.46
2018-03-28T02:32:20.439Z,9.42
2018-03-28T02:34:46.811Z,9.39
2018-03-28T02:37:13.242Z,9.36
2018-03-28T02:39:39.727Z,9.52
2018-03-28T02:42:06.129Z,9.53
2018-03-28T02:44:32.521Z,9.55
2018-03-28T02:46:58.971Z,9.57
2018-03-28T02:49:25.362Z,9.58
2018-03-28T02:51:51.822Z,9.51
2018-03-28T02:54:18.226Z,9.49
2018-03-28T02:56:44.582Z,9.48
2018-03-28T02:59:10.964Z,9.49
2018-03-28T03:01:37.377Z,9.35
2018-03-28T03:04:03.887Z,9.36
2018-03-28T03:06:30.306Z,9.35
2018-03-28T03:08:56.731Z,9.34
2018-03-28T03:11:23.153Z,9.36
2018-03-28T03:13:49.557Z,9.34
2018-03-28T03:16:16.053Z,9.32
2018-03-28T03:18:42.438Z,9.28
2018-03-28T03:21:08.797Z,9.29
2018-03-28T03:23:35.174Z,9.33
2018-03-28T03:26:01.558Z,9.39
2018-03-28T03:28:27.938Z,9.39
2018-03-28T03:30:54.368Z,9.37
2018-03-28T03:33:20.750Z,9.37
2018-03-28T03:35:47.107Z,9.35
2018-03-28T03:38:13.485Z,9.35
2018-03-28T03:40:39.834Z,9.34
2018-03-28T03:43:06.187Z,9.35
2018-03-28T03:45:32.534Z,9.33
2018-03-28T03:47:58.929Z,9.32
2018-03-28T03:50:25.317Z,9.32
2018-03-28T03:52:51.681Z,9.29
2018-03-28T03:55:18.057Z,9.22
2018-03-28T03:57:44.413Z,8.98
2018-03-28T04:00:10.869Z,9.01
2018-03-28T04:02:37.246Z,9.11
2018-03-28T04:05:03.646Z,9.03
2018-03-28T04:07:30.003Z,9.13
2018-03-28T04:09:56.377Z,9.17
2018-03-28T04:12:22.809Z,9.24
2018-03-28T04:14:49.163Z,9.22
2018-03-28T04:17:15.537Z,9.11
2018-03-28T04:19:41.969Z,8.97
2018-03-28T04:22:08.421Z,8.98
2018-03-28T04:24:34.838Z,9.00
2018-03-28T04:27:01.278Z,9.02
2018-03-28T04:29:27.701Z,9.03
2018-03-28T04:31:54.130Z,8.94
2018-03-28T04:34:20.478Z,9.06
2018-03-28T04:36:46.842Z,9.04
2018-03-28T04:39:13.245Z,9.18
2018-03-28T04:41:39.601Z,9.15
2018-03-28T04:44:05.989Z,9.20
2018-03-28T04:46:32.369Z,9.18
2018-03-28T04:48:58.776Z,9.20
2018-03-28T04:51:25.218Z,9.11
2018-03-28T04:53:51.665Z,9.16
2018-03-28T04:56:18.052Z,9.00
2018-03-28T04:58:44.514Z,9.11
2018-03-28T05:01:10.923Z,9.16
2018-03-28T05:03:37.317Z,9.18
2018-03-28T05:06:03.744Z,9.09
2018-03-28T05:08:30.129Z,9.20
2018-03-28T05:10:56.584Z,9.23
2018-03-28T05:13:22.993Z,9.27
2018-03-28T05:15:49.551Z,9.26
2018-03-28T05:18:15.954Z,9.30
2018-03-28T05:20:42.702Z,9.27
2018-03-28T05:23:09.178Z,9.28
2018-03-28T05:25:36.250Z,9.21
2018-03-28T05:28:02.745Z,9.23
2018-03-28T05:30:29.389Z,9.26
2018-03-28T05:32:55.907Z,9.30
2018-03-28T05:35:22.393Z,9.22
2018-03-28T05:37:48.920Z,9.24
2018-03-28T05:40:15.390Z,9.23
2018-03-28T05:42:41.793Z,9.20
2018-03-28T05:45:08.204Z,9.12
2018-03-28T05:47:34.686Z,9.16
2018-03-28T05:50:01.154Z,9.17
2018-03-28T05:52:32.076Z,8.92
2018-03-28T05:54:59.040Z,9.09
2018-03-28T05:57:25.510Z,9.10
2018-03-28T05:59:52.009Z,9.09
2018-03-28T06:02:18.462Z,9.04
2018-03-28T06:04:44.870Z,8.99
2018-03-28T06:07:11.318Z,8.89
2018-03-28T06:09:37.749Z,8.92
2018-03-28T06:12:04.212Z,8.87
2018-03-28T06:14:30.614Z,8.85
2018-03-28T06:16:57.051Z,8.67
2018-03-28T06:19:23.466Z,8.66
2018-03-28T06:21:49.921Z,8.80
2018-03-28T06:24:16.386Z,8.85
2018-03-28T06:26:42.934Z,8.57
2018-03-28T06:29:09.322Z,8.73
2018-03-28T06:31:35.697Z,8.62
2018-03-28T06:34:02.122Z,8.83
2018-03-28T06:36:28.621Z,8.92
2018-03-28T06:38:55.169Z,8.98
2018-03-28T06:41:21.540Z,8.89
2018-03-28T06:43:47.977Z,8.89
2018-03-28T06:46:14.397Z,8.97
2018-03-28T06:48:40.873Z,8.97
2018-03-28T06:51:07.462Z,9.04
2018-03-28T06:53:33.866Z,9.17
2018-03-28T06:56:00.270Z,9.19
2018-03-28T06:58:26.726Z,9.14
2018-03-28T07:00:53.178Z,9.11
2018-03-28T07:03:19.555Z,9.11
2018-03-28T07:05:46.038Z,8.97
2018-03-28T07:08:12.494Z,9.02
2018-03-28T07:10:38.870Z,8.85
2018-03-28T07:13:05.331Z,8.70
2018-03-28T07:15:31.709Z,8.47
2018-03-28T07:17:58.094Z,8.43
2018-03-28T07:20:24.551Z,8.43
2018-03-28T07:22:51.038Z,8.35
2018-03-28T07:25:17.498Z,8.26
2018-03-28T07:27:44.028Z,8.27
2018-03-28T07:30:10.487Z,8.29
2018-03-28T07:32:37.045Z,8.26
2018-03-28T07:35:03.601Z,8.36
2018-03-28T07:37:30.091Z,8.31
2018-03-28T07:39:56.628Z,8.32
2018-03-28T07:42:23.107Z,8.01
2018-03-28T07:44:49.626Z,8.02
2018-03-28T07:47:16.042Z,8.09
2018-03-28T07:49:42.466Z,8.16
2018-03-28T07:52:08.929Z,7.87
2018-03-28T07:54:35.358Z,8.01
2018-03-28T07:57:01.822Z,8.22
2018-03-28T07:59:28.227Z,8.24
2018-03-28T08:01:54.650Z,8.10
2018-03-28T08:04:21.006Z,7.96
2018-03-28T08:06:47.460Z,7.90
2018-03-28T08:09:13.990Z,7.90
2018-03-28T08:11:40.506Z,7.48
2018-03-28T08:14:06.953Z,7.69
2018-03-28T08:16:33.488Z,7.82
2018-03-28T08:18:59.857Z,7.77
2018-03-28T08:21:26.301Z,7.57
2018-03-28T08:23:52.765Z,7.77
2018-03-28T08:26:19.197Z,7.89
2018-03-28T08:28:45.624Z,7.78
2018-03-28T08:31:12.070Z,7.90
2018-03-28T08:33:38.501Z,7.75
2018-03-28T08:36:04.901Z,7.84
2018-03-28T08:38:31.309Z,7.89
2018-03-28T08:40:57.798Z,7.86
2018-03-28T08:43:24.238Z,7.59
2018-03-28T08:45:50.850Z,7.56
2018-03-28T08:48:17.417Z,7.71
2018-03-28T08:50:43.898Z,7.68
2018-03-28T08:53:10.350Z,7.88
2018-03-28T08:55:36.801Z,8.03
2018-03-28T08:58:03.234Z,7.95
2018-03-28T09:00:29.678Z,8.09
2018-03-28T09:02:56.232Z,8.11
2018-03-28T09:05:22.696Z,8.22
2018-03-28T09:07:49.162Z,8.13
2018-03-28T09:10:15.662Z,8.03
2018-03-28T09:12:42.174Z,8.02
2018-03-28T09:15:08.724Z,8.23
2018-03-28T09:17:35.161Z,8.05
2018-03-28T09:20:01.641Z,7.70
2018-03-28T09:22:28.159Z,7.77
2018-03-28T09:24:54.673Z,7.64
2018-03-28T09:27:21.205Z,7.93
2018-03-28T09:29:47.626Z,8.21
2018-03-28T09:32:14.373Z,8.19
2018-03-28T09:34:40.833Z,8.27
2018-03-28T09:37:07.318Z,8.26
2018-03-28T09:39:33.758Z,8.11
2018-03-28T09:42:00.122Z,8.08
2018-03-28T09:44:26.573Z,8.16
2018-03-28T09:46:54.848Z,7.99
2018-03-28T09:49:21.981Z,8.02
2018-03-28T09:51:48.577Z,7.85
2018-03-28T09:54:14.963Z,7.89
2018-03-28T09:56:41.442Z,7.56
2018-03-28T09:59:07.815Z,7.52
2018-03-28T10:01:34.290Z,7.55
2018-03-28T10:04:12.779Z,7.61
2018-03-28T10:06:40.061Z,7.70
2018-03-28T10:09:06.494Z,7.72
2018-03-28T10:11:33.066Z,7.89
2018-03-28T10:13:59.786Z,7.93
2018-03-28T10:16:26.513Z,8.00
2018-03-28T10:18:53.113Z,8.07
2018-03-28T10:21:19.541Z,8.03
2018-03-28T10:23:46.114Z,8.05
2018-03-28T10:26:12.770Z,7.84
2018-03-28T10:28:39.228Z,7.81
2018-03-28T10:31:05.717Z,7.92
2018-03-28T10:33:34.062Z,8.09
2018-03-28T10:36:00.522Z,8.30
2018-03-28T10:38:27.054Z,8.25
2018-03-28T10:40:53.474Z,8.20
2018-03-28T10:43:20.030Z,8.32
2018-03-28T10:45:46.451Z,8.20
2018-03-28T10:48:12.870Z,8.05
2018-03-28T10:50:39.373Z,7.99
2018-03-28T10:53:05.778Z,8.05
2018-03-28T10:55:32.246Z,8.21
2018-03-28T10:57:58.946Z,8.39
2018-03-28T11:00:25.339Z,8.28
2018-03-28T11:02:53.917Z,8.53
2018-03-28T11:05:23.708Z,8.47
2018-03-28T11:07:50.437Z,8.59
2018-03-28T11:10:16.890Z,8.34
2018-03-28T11:12:43.466Z,8.27
2018-03-28T11:15:09.873Z,8.58
2018-03-28T11:17:37.456Z,8.70
2018-03-28T11:20:03.969Z,8.78
2018-03-28T11:22:30.438Z,8.66
2018-03-28T11:24:56.938Z,8.85
2018-03-28T11:27:23.461Z,8.65
2018-03-28T11:29:49.957Z,8.72
2018-03-28T11:32:16.346Z,8.71
2018-03-28T11:34:42.932Z,8.71
2018-03-28T11:37:09.400Z,8.88
2018-03-28T11:39:35.991Z,8.99
2018-03-28T11:42:02.463Z,9.02
2018-03-28T11:44:28.917Z,8.68
2018-03-28T11:46:55.372Z,8.63
2018-03-28T11:49:21.814Z,8.68
2018-03-28T11:51:48.246Z,8.85
2018-03-28T11:54:14.695Z,8.85
2018-03-28T11:56:41.146Z,8.63
2018-03-28T11:59:07.643Z,8.49
2018-03-28T12:01:34.173Z,8.74
2018-03-28T12:04:00.659Z,8.88
2018-03-28T12:06:27.101Z,8.67
2018-03-28T12:08:53.538Z,8.61
2018-03-28T12:11:20.051Z,8.81
2018-03-28T12:13:46.449Z,8.70
2018-03-28T12:16:12.834Z,8.79
2018-03-28T12:18:39.366Z,8.69
2018-03-28T12:21:05.774Z,8.70
2018-03-28T12:23:32.283Z,8.57
2018-03-28T12:25:58.780Z,8.37
2018-03-28T12:28:27.095Z,8.50
2018-03-28T12:30:53.566Z,8.82
2018-03-28T12:33:23.060Z,8.75
2018-03-28T12:35:51.330Z,8.84
2018-03-28T12:38:21.566Z,8.72
2018-03-28T12:40:55.874Z,8.59
2018-03-28T12:43:32.065Z,8.48
2018-03-28T12:46:05.182Z,8.30
2018-03-28T12:48:34.289Z,8.60
2018-03-28T12:51:01.962Z,8.23
2018-03-28T12:53:30.164Z,8.21
2018-03-28T12:55:56.950Z,8.49
2018-03-28T12:58:23.474Z,8.67
2018-03-28T13:00:51.754Z,8.32
2018-03-28T13:03:18.290Z,8.48
2018-03-28T13:05:44.659Z,8.66
2018-03-28T13:08:11.113Z,8.62
2018-03-28T13:10:37.512Z,8.75
2018-03-28T13:13:17.986Z,8.66
2018-03-28T13:15:44.465Z,8.83
2018-03-28T13:18:11.012Z,8.85
2018-03-28T13:20:37.542Z,8.83
2018-03-28T13:23:03.946Z,8.91
2018-03-28T13:25:30.548Z,9.03
2018-03-28T13:27:56.949Z,9.18
2018-03-28T13:30:23.412Z,9.28
2018-03-28T13:32:49.884Z,9.35
2018-03-28T13:35:16.249Z,9.42
2018-03-28T13:37:42.764Z,9.35
2018-03-28T13:40:09.189Z,9.41
2018-03-28T13:42:35.626Z,9.42
2018-03-28T13:45:02.094Z,9.27
2018-03-28T13:47:28.517Z,9.26
2018-03-28T13:49:55.018Z,9.17
2018-03-28T13:52:21.545Z,9.21
2018-03-28T13:54:47.968Z,9.19
2018-03-28T13:57:14.377Z,9.27
2018-03-28T13:59:40.872Z,9.34
2018-03-28T14:02:07.333Z,9.20
2018-03-28T14:04:34.609Z,9.30
2018-03-28T14:07:07.009Z,9.37
2018-03-28T14:09:35.556Z,9.33
2018-03-28T14:12:05.561Z,9.42
2018-03-28T14:14:35.737Z,9.33
2018-03-28T14:17:02.334Z,9.34
2018-03-28T14:19:29.920Z,9.22
2018-03-28T14:21:56.308Z,9.36
2018-03-28T14:24:22.782Z,9.40
2018-03-28T14:26:49.362Z,9.46
2018-03-28T14:29:15.930Z,9.51
2018-03-28T14:31:42.409Z,9.54
2018-03-28T14:34:08.854Z,9.44
2018-03-28T14:36:35.344Z,9.40
2018-03-28T14:39:01.726Z,9.59
2018-03-28T14:41:28.481Z,9.66
2018-03-28T14:43:54.861Z,9.57
2018-03-28T14:46:21.350Z,9.55
2018-03-28T14:48:47.775Z,9.57
2018-03-28T14:51:14.194Z,9.59
2018-03-28T14:53:40.749Z,9.51
2018-03-28T14:56:07.233Z,9.59
2018-03-28T14:58:33.777Z,9.64
2018-03-28T15:01:00.228Z,9.66
2018-03-28T15:03:26.609Z,9.54
2018-03-28T15:05:53.016Z,9.43
2018-03-28T15:08:19.447Z,9.44
2018-03-28T15:10:45.842Z,9.37
2018-03-28T15:13:12.312Z,9.48
2018-03-28T15:15:38.748Z,9.41
2018-03-28T15:18:05.118Z,9.43
2018-03-28T15:20:31.656Z,9.45
2018-03-28T15:22:58.114Z,9.41
2018-03-28T15:25:24.670Z,9.41
2018-03-28T15:27:51.201Z,9.44
2018-03-28T15:30:17.655Z,9.45
2018-03-28T15:32:44.126Z,9.50
2018-03-28T15:35:10.549Z,9.60
2018-03-28T15:37:36.986Z,9.53
2018-03-28T15:40:03.473Z,9.53
2018-03-28T15:42:29.998Z,9.57
2018-03-28T15:44:56.847Z,9.59
2018-03-28T15:47:23.469Z,9.57
2018-03-28T15:49:49.833Z,9.55
2018-03-28T15:52:16.280Z,9.45
2018-03-28T15:54:42.714Z,9.47
2018-03-28T15:57:09.108Z,9.45
2018-03-28T15:59:35.526Z,9.43
2018-03-28T16:02:01.933Z,9.43
2018-03-28T16:04:28.369Z,9.37
2018-03-28T16:06:54.754Z,9.39
2018-03-28T16:09:21.133Z,9.38
2018-03-28T16:11:47.605Z,9.35
2018-03-28T16:14:13.993Z,9.35
2018-03-28T16:16:40.429Z,9.34
2018-03-28T16:19:06.965Z,9.31
2018-03-28T16:21:33.361Z,9.30
2018-03-28T16:23:59.735Z,9.38
2018-03-28T16:26:26.167Z,9.35
2018-03-28T16:28:52.559Z,9.53
2018-03-28T16:31:18.973Z,9.43
2018-03-28T16:33:45.393Z,9.42
2018-03-28T16:36:11.819Z,9.44
2018-03-28T16:38:38.261Z,9.43
2018-03-28T16:41:04.746Z,9.39
2018-03-28T16:43:31.149Z,9.37
2018-03-28T16:45:57.610Z,9.32
2018-03-28T16:48:24.118Z,9.31
2018-03-28T16:50:50.602Z,9.27
2018-03-28T16:53:16.989Z,9.16
2018-03-28T16:55:43.429Z,9.16
2018-03-28T16:58:09.848Z,9.09
2018-03-28T17:00:36.297Z,9.09
2018-03-28T17:03:02.765Z,9.08
2018-03-28T17:05:29.145Z,9.08
2018-03-28T17:07:55.554Z,9.10
2018-03-28T17:10:22.014Z,9.09
2018-03-28T17:12:48.518Z,9.09
2018-03-28T17:15:14.970Z,9.07
2018-03-28T17:17:41.423Z,9.02
2018-03-28T17:20:07.865Z,9.00
2018-03-28T17:22:34.242Z,9.00
2018-03-28T17:25:00.634Z,8.97
2018-03-28T17:27:27.123Z,8.95
2018-03-28T17:29:53.565Z,8.89
2018-03-28T17:32:19.958Z,8.83
2018-03-28T17:34:46.401Z,8.80
2018-03-28T17:37:12.800Z,8.79
2018-03-28T17:39:39.222Z,8.77
2018-03-28T17:42:05.654Z,8.78
2018-03-28T17:44:32.998Z,8.74
2018-03-28T17:46:59.442Z,8.72
2018-03-28T17:49:25.797Z,8.72
2018-03-28T17:51:52.318Z,8.68
2018-03-28T17:54:18.694Z,8.67
2018-03-28T17:56:45.061Z,8.63
2018-03-28T17:59:11.494Z,8.58
2018-03-28T18:01:37.902Z,8.56
2018-03-28T18:04:04.381Z,8.49
2018-03-28T18:06:30.795Z,8.50
2018-03-28T18:08:57.390Z,8.49
2018-03-28T18:11:23.766Z,8.45
2018-03-28T18:13:50.253Z,8.42
2018-03-28T18:16:17.162Z,8.40
2018-03-28T18:18:44.777Z,8.40
2018-03-28T18:21:11.150Z,8.42
2018-03-28T18:23:37.559Z,8.34
2018-03-28T18:26:04.049Z,8.32
2018-03-28T18:28:30.567Z,8.34
2018-03-28T18:30:57.025Z,8.32
2018-03-28T18:33:23.443Z,8.32
2018-03-28T18:35:49.820Z,8.35
2018-03-28T18:38:16.351Z,8.30
2018-03-28T18:40:42.748Z,8.35
2018-03-28T18:43:09.174Z,8.24
2018-03-28T18:45:35.595Z,8.18
2018-03-28T18:48:01.995Z,8.17
2018-03-28T18:50:28.559Z,8.18
2018-03-28T18:52:54.979Z,8.13
2018-03-28T18:55:21.641Z,8.13
2018-03-28T18:57:48.078Z,8.10
2018-03-28T19:00:14.549Z,8.15
2018-03-28T19:02:40.945Z,8.07
2018-03-28T19:05:07.333Z,7.96
2018-03-28T19:07:33.841Z,7.96
2018-03-28T19:10:00.246Z,7.88
2018-03-28T19:12:26.691Z,7.84
2018-03-28T19:14:53.165Z,7.78
2018-03-28T19:17:19.616Z,7.72
2018-03-28T19:19:46.129Z,7.72
2018-03-28T19:22:12.545Z,7.67
2018-03-28T19:24:38.993Z,7.56
2018-03-28T19:27:05.428Z,7.49
2018-03-28T19:29:31.909Z,7.49
2018-03-28T19:31:58.341Z,7.48
2018-03-28T19:34:24.766Z,7.36
2018-03-28T19:36:51.213Z,7.33
2018-03-28T19:39:17.637Z,7.39
2018-03-28T19:41:44.051Z,7.44
2018-03-28T19:44:11.135Z,7.46
2018-03-28T19:46:37.552Z,7.45
2018-03-28T19:49:03.953Z,7.45
2018-03-28T19:51:30.376Z,7.48
2018-03-28T19:53:56.793Z,7.45
2018-03-28T19:56:23.217Z,7.43
2018-03-28T19:58:49.661Z,7.38
2018-03-28T20:01:16.050Z,7.34
2018-03-28T20:03:42.500Z,7.29
2018-03-28T20:06:08.984Z,7.33
2018-03-28T20:08:35.357Z,7.33
2018-03-28T20:11:02.576Z,7.35
2018-03-28T20:13:29.857Z,7.36
2018-03-28T20:15:57.438Z,7.38
2018-03-28T20:18:24.062Z,7.35
2018-03-28T20:20:50.426Z,7.25
2018-03-28T20:23:16.964Z,7.13
2018-03-28T20:25:43.458Z,7.10
2018-03-28T20:28:09.873Z,7.07
2018-03-28T20:30:36.253Z,7.06
2018-03-28T20:33:02.834Z,7.05
2018-03-28T20:35:29.307Z,7.01
2018-03-28T20:37:55.705Z,7.00
2018-03-28T20:40:22.186Z,7.04
2018-03-28T20:42:48.609Z,7.04
2018-03-28T20:45:15.094Z,7.05
2018-03-28T20:47:41.457Z,7.01
2018-03-28T20:50:07.902Z,6.98
2018-03-28T20:52:34.294Z,6.93
2018-03-28T20:55:00.694Z,6.93
2018-03-28T20:57:27.103Z,6.81
2018-03-28T20:59:53.580Z,6.72
2018-03-28T21:02:19.990Z,6.50
2018-03-28T21:04:46.538Z,6.50
2018-03-28T21:07:12.921Z,6.48
2018-03-28T21:09:39.323Z,6.51
2018-03-28T21:12:05.694Z,6.49
2018-03-28T21:14:32.106Z,6.54
2018-03-28T21:16:58.481Z,6.48
2018-03-28T21:19:24.843Z,6.33
2018-03-28T21:21:51.416Z,6.26
2018-03-28T21:24:17.789Z,6.03
2018-03-28T21:26:44.153Z,5.89
2018-03-28T21:29:10.518Z,5.84
2018-03-28T21:31:36.913Z,5.93
2018-03-28T21:34:03.306Z,5.98
2018-03-28T21:36:29.775Z,5.97
2018-03-28T21:38:56.349Z,6.03
2018-03-28T21:41:22.722Z,6.05
2018-03-28T21:43:49.104Z,5.95
2018-03-28T21:46:15.473Z,5.87
2018-03-28T21:48:41.838Z,5.86
2018-03-28T21:51:08.213Z,5.71
2018-03-28T21:53:34.601Z,5.67
2018-03-28T21:56:00.965Z,5.74
2018-03-28T21:58:27.330Z,5.77
2018-03-28T22:00:53.720Z,5.85
2018-03-28T22:03:20.117Z,5.97
2018-03-28T22:05:46.494Z,6.04
2018-03-28T22:08:12.877Z,6.05
2018-03-28T22:10:39.301Z,6.05
2018-03-28T22:13:05.665Z,5.91
2018-03-28T22:15:32.017Z,5.90
2018-03-28T22:17:58.381Z,5.97
2018-03-28T22:20:24.749Z,5.97
2018-03-28T22:22:51.133Z,5.94
2018-03-28T22:25:17.546Z,5.69
2018-03-28T22:27:44.238Z,5.42
2018-03-28T22:30:10.748Z,5.45
2018-03-28T22:32:37.206Z,5.32
2018-03-28T22:35:03.585Z,5.34
2018-03-28T22:37:30.008Z,5.25
2018-03-28T22:39:56.445Z,5.31
2018-03-28T22:42:22.801Z,5.46
2018-03-28T22:44:49.156Z,5.24
2018-03-28T22:47:15.560Z,5.20
2018-03-28T22:49:41.906Z,5.00
2018-03-28T22:52:08.285Z,5.16
2018-03-28T22:54:34.634Z,5.22
2018-03-28T22:57:01.010Z,5.31
2018-03-28T22:59:27.386Z,5.25
2018-03-28T23:01:53.750Z,5.34
2018-03-28T23:04:20.122Z,5.41
2018-03-28T23:06:46.490Z,5.33
2018-03-28T23:09:12.845Z,5.46
2018-03-28T23:11:39.239Z,5.66
2018-03-28T23:14:05.604Z,5.74
2018-03-28T23:16:32.015Z,5.80
2018-03-28T23:18:58.378Z,5.88
2018-03-28T23:21:24.756Z,5.84
2018-03-28T23:23:51.132Z,5.89
2018-03-28T23:26:17.506Z,5.89
2018-03-28T23:28:43.862Z,5.91
2018-03-28T23:31:10.295Z,5.95
2018-03-28T23:33:36.698Z,6.00
2018-03-28T23:36:03.106Z,6.05
2018-03-28T23:38:29.513Z,6.11
2018-03-28T23:40:56.005Z,6.13
2018-03-28T23:43:22.368Z,6.17
2018-03-28T23:45:48.877Z,6.14
2018-03-28T23:48:15.246Z,6.15
2018-03-28T23:50:41.777Z,6.26
2018-03-28T23:53:08.198Z,6.25
2018-03-28T23:55:34.582Z,6.12
2018-03-28T23:58:00.960Z,6.13
